Time;durP1;ratioP1;P1;durP2;ratioP2;P2;SDS_P1;SDS_P2;PMS_P1;PMS_P2;Temp;Humidity;BMP_temperature;BMP_pressure;BME280_temperature;BME280_humidity;BME280_pressure;Samples;Min_cycle;Max_cycle;Signal;HPM_P1;HPM_P2
2024/02/22 00:00:45;;;;;;;19.10;3.67;;;;;;;;;;6185453;23;20367;-94
2024/02/22 00:03:10;;;;;;;29.65;3.33;;;;;;;;;;6185255;23;20004;-94
2024/02/22 00:05:36;;;;;;;24.93;3.13;;;;;;;;;;6184819;23;20140;-94
2024/02/22 00:08:01;;;;;;;18.20;3.53;;;;;;;;;;6185095;23;20251;-94
2024/02/22 00:10:30;;;;;;;18.85;2.60;;;;;;;;;;6185458;23;20000;-95
2024/02/22 00:12:56;;;;;;;17.35;3.13;;;;;;;;;;6184837;23;20371;-95
2024/02/22 00:15:23;;;;;;;23.35;3.47;;;;;;;;;;6184742;23;20100;-94
2024/02/22 00:17:49;;;;;;;23.35;3.85;;;;;;;;;;6185598;23;19997;-94
2024/02/22 00:20:16;;;;;;;20.15;2.95;;;;;;;;;;6184750;23;20009;-94
2024/02/22 00:22:41;;;;;;;25.02;3.17;;;;;;;;;;6184975;23;20082;-94
2024/02/22 00:25:07;;;;;;;25.88;3.90;;;;;;;;;;6184976;23;20428;-94
2024/02/22 00:27:33;;;;;;;23.10;3.65;;;;;;;;;;6184827;23;19993;-94
2024/02/22 00:29:59;;;;;;;34.40;3.75;;;;;;;;;;6185037;23;20332;-94
2024/02/22 00:32:24;;;;;;;22.02;3.08;;;;;;;;;;6185224;23;20005;-95
2024/02/22 00:34:49;;;;;;;34.42;6.40;;;;;;;;;;6185343;23;20052;-94
2024/02/22 00:37:14;;;;;;;30.08;4.10;;;;;;;;;;6185212;23;20000;-94
2024/02/22 00:39:40;;;;;;;31.58;4.05;;;;;;;;;;6185173;23;20080;-94
2024/02/22 00:42:05;;;;;;;45.22;5.60;;;;;;;;;;6184850;23;20001;-94
2024/02/22 00:44:31;;;;;;;23.83;4.00;;;;;;;;;;6185047;23;20001;-94
2024/02/22 00:46:56;;;;;;;44.30;4.60;;;;;;;;;;6184759;23;20059;-94
2024/02/22 00:49:22;;;;;;;37.25;5.50;;;;;;;;;;6185549;23;20004;-95
2024/02/22 00:51:47;;;;;;;23.77;4.05;;;;;;;;;;6185027;23;20081;-95
2024/02/22 00:54:12;;;;;;;28.95;5.32;;;;;;;;;;6186310;23;19993;-94
2024/02/22 00:56:38;;;;;;;34.58;6.90;;;;;;;;;;6186056;23;20005;-95
2024/02/22 00:59:03;;;;;;;23.98;3.80;;;;;;;;;;6186165;23;20444;-94
2024/02/22 01:01:28;;;;;;;37.90;6.80;;;;;;;;;;6186951;23;20004;-95
2024/02/22 01:03:53;;;;;;;31.75;4.13;;;;;;;;;;6187443;23;20028;-94
2024/02/22 01:06:19;;;;;;;35.80;4.22;;;;;;;;;;6188540;23;20016;-94
2024/02/22 01:08:44;;;;;;;27.92;6.53;;;;;;;;;;6188573;23;20005;-94
2024/02/22 01:11:09;;;;;;;37.20;4.93;;;;;;;;;;6193012;23;20448;-94
2024/02/22 01:13:35;;;;;;;29.85;4.15;;;;;;;;;;6189662;23;19997;-94
2024/02/22 01:16:00;;;;;;;35.92;4.57;;;;;;;;;;6187052;23;20008;-94
2024/02/22 01:18:25;;;;;;;30.85;6.55;;;;;;;;;;6187026;23;20064;-95
2024/02/22 01:20:51;;;;;;;25.95;4.68;;;;;;;;;;6186003;23;20004;-94
2024/02/22 01:23:16;;;;;;;38.35;5.57;;;;;;;;;;6185673;23;20001;-95
2024/02/22 01:25:41;;;;;;;34.97;4.47;;;;;;;;;;6186549;23;20424;-95
2024/02/22 01:28:06;;;;;;;40.28;5.53;;;;;;;;;;6188139;23;20004;-95
2024/02/22 01:30:32;;;;;;;29.02;4.35;;;;;;;;;;6188643;23;20359;-95
2024/02/22 01:32:57;;;;;;;33.20;5.85;;;;;;;;;;6188324;23;20659;-95
2024/02/22 01:35:22;;;;;;;33.60;3.95;;;;;;;;;;6187704;23;20005;-92
2024/02/22 01:37:48;;;;;;;37.22;5.22;;;;;;;;;;6187271;23;20040;-94
2024/02/22 01:40:15;;;;;;;25.15;4.15;;;;;;;;;;6187654;23;20400;-95
2024/02/22 01:42:41;;;;;;;38.90;4.95;;;;;;;;;;6188077;23;20031;-94
2024/02/22 01:45:06;;;;;;;37.17;4.13;;;;;;;;;;6187677;23;20005;-94
2024/02/22 01:47:31;;;;;;;27.35;4.88;;;;;;;;;;6188073;23;19997;-95
2024/02/22 01:49:57;;;;;;;33.63;5.00;;;;;;;;;;6188505;23;20027;-96
2024/02/22 01:52:22;;;;;;;34.85;4.60;;;;;;;;;;6188370;23;20001;-95
2024/02/22 01:54:48;;;;;;;27.55;5.18;;;;;;;;;;6187719;23;20001;-95
2024/02/22 01:57:13;;;;;;;32.88;4.55;;;;;;;;;;6188327;23;20021;-95
2024/02/22 01:59:39;;;;;;;41.72;5.13;;;;;;;;;;6188381;23;20084;-94
2024/02/22 02:02:04;;;;;;;37.63;6.00;;;;;;;;;;6187133;23;20001;-95
2024/02/22 02:04:30;;;;;;;37.40;4.63;;;;;;;;;;6187347;23;20328;-95
2024/02/22 02:06:55;;;;;;;31.02;4.82;;;;;;;;;;6187191;23;20016;-93
2024/02/22 02:09:20;;;;;;;46.60;6.68;;;;;;;;;;6187988;23;20040;-95
2024/02/22 02:11:46;;;;;;;31.10;4.90;;;;;;;;;;6187928;23;20005;-95
2024/02/22 02:14:12;;;;;;;32.35;4.97;;;;;;;;;;6188024;23;20323;-95
2024/02/22 02:16:37;;;;;;;37.67;7.55;;;;;;;;;;6187538;23;20505;-95
2024/02/22 02:19:07;;;;;;;42.22;6.38;;;;;;;;;;6188297;23;19997;-95
2024/02/22 02:21:38;;;;;;;44.08;6.25;;;;;;;;;;6187787;23;19997;-94
2024/02/22 02:24:13;;;;;;;49.97;8.10;;;;;;;;;;6187901;23;20001;-96
2024/02/22 02:26:38;;;;;;;40.08;5.10;;;;;;;;;;6188127;23;20071;-95
2024/02/22 02:29:03;;;;;;;43.25;5.60;;;;;;;;;;6188875;23;20001;-95
2024/02/22 02:31:29;;;;;;;26.75;4.10;;;;;;;;;;6188096;23;20092;-95
2024/02/22 02:33:54;;;;;;;46.42;5.60;;;;;;;;;;6187753;23;20043;-95
2024/02/22 02:36:19;;;;;;;42.85;4.68;;;;;;;;;;6187545;23;20117;-94
2024/02/22 02:38:44;;;;;;;41.30;5.80;;;;;;;;;;6187622;23;19997;-94
2024/02/22 02:41:10;;;;;;;39.55;4.93;;;;;;;;;;6186995;23;20487;-94
2024/02/22 02:43:35;;;;;;;35.83;5.30;;;;;;;;;;6187799;23;20035;-95
2024/02/22 02:46:00;;;;;;;43.92;5.25;;;;;;;;;;6187423;23;20013;-95
2024/02/22 02:48:26;;;;;;;39.50;5.78;;;;;;;;;;6188170;23;20001;-96
2024/02/22 02:50:51;;;;;;;34.08;5.22;;;;;;;;;;6188562;23;20016;-94
2024/02/22 02:53:16;;;;;;;37.17;4.60;;;;;;;;;;6190906;23;19997;-95
2024/02/22 02:55:42;;;;;;;30.27;4.93;;;;;;;;;;6192188;23;19997;-94
2024/02/22 02:58:08;;;;;;;29.98;3.95;;;;;;;;;;6195780;23;20032;-93
2024/02/22 03:00:33;;;;;;;32.00;4.70;;;;;;;;;;6193579;23;20076;-92
2024/02/22 03:02:59;;;;;;;34.55;4.45;;;;;;;;;;6191256;23;20001;-94
2024/02/22 03:05:26;;;;;;;34.65;4.63;;;;;;;;;;6193274;23;20005;-95
2024/02/22 03:07:53;;;;;;;47.38;7.03;;;;;;;;;;6192039;23;20057;-94
2024/02/22 03:10:18;;;;;;;39.85;4.57;;;;;;;;;;6197059;23;20094;-95
2024/02/22 03:12:43;;;;;;;37.25;4.40;;;;;;;;;;6196258;23;19997;-94
2024/02/22 03:15:09;;;;;;;42.60;5.38;;;;;;;;;;6198714;23;20012;-95
2024/02/22 03:17:34;;;;;;;31.75;3.92;;;;;;;;;;6196513;23;20001;-94
2024/02/22 03:19:59;;;;;;;35.50;5.60;;;;;;;;;;6199953;23;19997;-95
2024/02/22 03:22:25;;;;;;;38.63;4.68;;;;;;;;;;6200703;23;20001;-95
2024/02/22 03:24:50;;;;;;;44.20;4.43;;;;;;;;;;6201965;23;20057;-95
2024/02/22 03:27:16;;;;;;;37.33;4.68;;;;;;;;;;6203462;23;20057;-94
2024/02/22 03:29:41;;;;;;;27.05;4.15;;;;;;;;;;6202232;23;19997;-95
2024/02/22 03:32:07;;;;;;;33.60;4.40;;;;;;;;;;6204335;23;20012;-93
2024/02/22 03:34:33;;;;;;;26.95;4.30;;;;;;;;;;6200934;23;20084;-93
2024/02/22 03:36:58;;;;;;;20.13;3.10;;;;;;;;;;6200813;23;20031;-96
2024/02/22 03:39:23;;;;;;;35.67;4.72;;;;;;;;;;6196484;23;19997;-95
2024/02/22 03:41:49;;;;;;;26.08;4.22;;;;;;;;;;6199207;23;20055;-95
2024/02/22 03:44:15;;;;;;;26.23;4.18;;;;;;;;;;6201971;23;20020;-96
2024/02/22 03:46:46;;;;;;;25.42;3.85;;;;;;;;;;6200503;23;20016;-95
2024/02/22 03:49:12;;;;;;;44.83;7.43;;;;;;;;;;6201645;23;19993;-95
2024/02/22 03:51:39;;;;;;;37.53;4.00;;;;;;;;;;6203853;23;19993;-95
2024/02/22 03:54:05;;;;;;;26.00;3.83;;;;;;;;;;6205674;23;19993;-95
2024/02/22 03:56:31;;;;;;;26.00;3.92;;;;;;;;;;6206008;23;20008;-95
2024/02/22 03:58:57;;;;;;;27.65;4.45;;;;;;;;;;6201288;23;20045;-95
2024/02/22 04:01:22;;;;;;;36.58;6.10;;;;;;;;;;6201735;23;20004;-95
2024/02/22 04:03:48;;;;;;;23.75;3.67;;;;;;;;;;6203716;23;20454;-95
2024/02/22 04:06:13;;;;;;;31.83;3.90;;;;;;;;;;6203867;23;20031;-95
2024/02/22 04:08:38;;;;;;;31.00;5.82;;;;;;;;;;6203900;23;20000;-96
2024/02/22 04:11:04;;;;;;;27.48;3.63;;;;;;;;;;6205366;23;20005;-95
2024/02/22 04:13:29;;;;;;;21.48;2.88;;;;;;;;;;6204394;23;20016;-95
2024/02/22 04:15:55;;;;;;;24.00;4.55;;;;;;;;;;6206221;23;20028;-95
2024/02/22 04:18:23;;;;;;;19.95;2.67;;;;;;;;;;6209129;23;20021;-95
2024/02/22 04:20:49;;;;;;;29.85;4.90;;;;;;;;;;6210285;23;19997;-95
2024/02/22 04:23:15;;;;;;;16.90;3.83;;;;;;;;;;6209395;23;20029;-95
2024/02/22 04:25:41;;;;;;;27.70;3.67;;;;;;;;;;6208065;23;20064;-95
2024/02/22 04:28:10;;;;;;;22.35;3.38;;;;;;;;;;6209216;23;20084;-96
2024/02/22 04:30:36;;;;;;;45.33;8.32;;;;;;;;;;6209016;23;20000;-96
2024/02/22 04:33:03;;;;;;;35.45;4.50;;;;;;;;;;6209567;23;20048;-96
2024/02/22 04:35:29;;;;;;;20.48;4.10;;;;;;;;;;6185397;23;20020;-94
2024/02/22 04:37:54;;;;;;;23.70;2.67;;;;;;;;;;6186040;23;19993;-95
2024/02/22 04:40:20;;;;;;;18.77;2.80;;;;;;;;;;6186679;23;20023;-94
2024/02/22 04:42:46;;;;;;;23.10;2.45;;;;;;;;;;6186410;23;19985;-94
2024/02/22 04:45:13;;;;;;;25.05;3.60;;;;;;;;;;6186853;23;20060;-95
2024/02/22 04:47:39;;;;;;;17.45;2.03;;;;;;;;;;6187204;23;20009;-95
2024/02/22 04:52:49;;;;;;;17.85;2.38;;;;;;;;;;6145061;23;20007;-94
2024/02/22 04:55:18;;;;;;;21.60;2.35;;;;;;;;;;6142707;23;20021;-95
2024/02/22 05:00:47;;;;;;;16.45;2.58;;;;;;;;;;6216032;23;20000;-94
2024/02/22 05:03:12;;;;;;;14.02;2.10;;;;;;;;;;6189290;23;20001;-95
2024/02/22 05:13:28;;;;;;;16.30;2.30;;;;;;;;;;6082821;23;20202;-94
2024/02/22 05:16:03;;;;;;;15.20;2.72;;;;;;;;;;6188829;23;20000;-95
2024/02/22 05:18:29;;;;;;;22.42;3.55;;;;;;;;;;6213637;23;20001;-93
2024/02/22 05:23:30;;;;;;;14.45;1.95;;;;;;;;;;6100705;23;20090;-95
2024/02/22 05:25:56;;;;;;;11.68;1.90;;;;;;;;;;6214858;23;20044;-95
2024/02/22 05:28:21;;;;;;;11.25;1.35;;;;;;;;;;6213904;23;19996;-95
2024/02/22 05:30:46;;;;;;;12.95;1.55;;;;;;;;;;6213344;23;19993;-96
2024/02/22 05:33:12;;;;;;;10.00;1.35;;;;;;;;;;6213588;23;20020;-95
2024/02/22 05:35:37;;;;;;;4.03;0.98;;;;;;;;;;6212442;23;20009;-95
2024/02/22 05:38:03;;;;;;;8.02;1.10;;;;;;;;;;6211806;23;20009;-95
2024/02/22 05:40:29;;;;;;;10.98;0.90;;;;;;;;;;6209442;23;20005;-95
2024/02/22 05:42:54;;;;;;;4.43;0.80;;;;;;;;;;6209850;23;20012;-94
2024/02/22 05:45:37;;;;;;;6.13;1.10;;;;;;;;;;6209552;23;20068;-95
2024/02/22 05:48:03;;;;;;;8.77;1.00;;;;;;;;;;6210118;23;19997;-94
2024/02/22 05:50:29;;;;;;;4.30;0.93;;;;;;;;;;6209186;23;20001;-95
2024/02/22 05:52:54;;;;;;;5.22;1.00;;;;;;;;;;6211705;23;20048;-95
2024/02/22 05:55:20;;;;;;;4.63;1.25;;;;;;;;;;6210888;23;20005;-95
2024/02/22 05:57:45;;;;;;;3.67;0.90;;;;;;;;;;6210363;23;20041;-96
2024/02/22 06:00:13;;;;;;;6.28;1.20;;;;;;;;;;6208963;23;19989;-94
2024/02/22 06:02:39;;;;;;;4.55;0.90;;;;;;;;;;6208373;23;20005;-94
2024/02/22 06:05:04;;;;;;;7.05;1.02;;;;;;;;;;6207279;23;19989;-93
2024/02/22 06:07:29;;;;;;;4.28;1.00;;;;;;;;;;6207495;23;20048;-93
2024/02/22 06:09:55;;;;;;;5.22;0.82;;;;;;;;;;6207892;23;19981;-94
2024/02/22 06:12:20;;;;;;;7.13;1.13;;;;;;;;;;6207034;23;20011;-93
2024/02/22 06:14:45;;;;;;;8.10;1.30;;;;;;;;;;6202797;23;20209;-94
2024/02/22 06:17:10;;;;;;;3.78;0.90;;;;;;;;;;6204137;23;19981;-93
2024/02/22 06:19:36;;;;;;;6.80;1.23;;;;;;;;;;6198980;23;20005;-94
2024/02/22 06:22:01;;;;;;;5.57;1.33;;;;;;;;;;6198860;23;20001;-92
2024/02/22 06:24:26;;;;;;;5.22;1.27;;;;;;;;;;6202907;23;20016;-92
2024/02/22 06:26:52;;;;;;;5.43;1.03;;;;;;;;;;6199939;23;20005;-93
2024/02/22 06:29:17;;;;;;;6.65;1.42;;;;;;;;;;6199939;23;20219;-93
2024/02/22 06:31:42;;;;;;;5.30;1.40;;;;;;;;;;6199339;23;20005;-94
2024/02/22 06:34:08;;;;;;;9.00;1.40;;;;;;;;;;6202232;23;20024;-93
2024/02/22 06:36:33;;;;;;;9.50;1.83;;;;;;;;;;6204125;23;20325;-92
2024/02/22 06:38:58;;;;;;;4.93;1.20;;;;;;;;;;6204944;23;20071;-92
2024/02/22 06:41:24;;;;;;;7.00;1.77;;;;;;;;;;6205452;23;20032;-92
2024/02/22 06:43:50;;;;;;;8.93;1.15;;;;;;;;;;6206429;23;20278;-94
2024/02/22 06:46:16;;;;;;;4.25;1.15;;;;;;;;;;6203990;23;20013;-92
2024/02/22 06:48:41;;;;;;;4.63;1.00;;;;;;;;;;6204441;23;19981;-94
2024/02/22 06:51:06;;;;;;;12.43;1.42;;;;;;;;;;6204091;23;20036;-92
2024/02/22 06:53:32;;;;;;;1.27;0.50;;;;;;;;;;6203650;23;20008;-95
2024/02/22 06:55:57;;;;;;;4.93;1.15;;;;;;;;;;6194456;23;20320;-91
2024/02/22 06:58:22;;;;;;;5.93;0.98;;;;;;;;;;6199652;23;20023;-92
2024/02/22 07:00:48;;;;;;;8.77;1.23;;;;;;;;;;6198521;23;20008;-94
2024/02/22 07:03:13;;;;;;;8.20;0.82;;;;;;;;;;6201243;23;20007;-93
2024/02/22 07:05:39;;;;;;;4.18;0.90;;;;;;;;;;6197806;23;20065;-94
2024/02/22 07:08:04;;;;;;;4.55;1.10;;;;;;;;;;6197336;23;20000;-94
2024/02/22 07:10:30;;;;;;;5.05;0.70;;;;;;;;;;6197547;23;19997;-94
2024/02/22 07:12:55;;;;;;;5.10;0.70;;;;;;;;;;6197888;23;20059;-94
2024/02/22 07:15:21;;;;;;;0.98;0.28;;;;;;;;;;6192402;23;20009;-95
2024/02/22 07:17:46;;;;;;;1.25;0.40;;;;;;;;;;6195468;23;19997;-95
2024/02/22 07:20:13;;;;;;;3.42;0.60;;;;;;;;;;6192559;23;20005;-96
2024/02/22 07:22:40;;;;;;;2.75;0.43;;;;;;;;;;6191618;23;20005;-96
2024/02/22 07:25:06;;;;;;;1.95;0.50;;;;;;;;;;6191633;23;20013;-93
2024/02/22 07:27:32;;;;;;;3.45;0.60;;;;;;;;;;6193235;23;19997;-95
2024/02/22 07:29:58;;;;;;;2.55;0.85;;;;;;;;;;6190264;23;20432;-93
2024/02/22 07:32:23;;;;;;;1.67;0.52;;;;;;;;;;6192191;23;20016;-94
2024/02/22 07:34:51;;;;;;;0.80;0.52;;;;;;;;;;6190050;23;20001;-96
2024/02/22 07:37:18;;;;;;;1.55;0.47;;;;;;;;;;6192862;23;20001;-96
2024/02/22 07:39:46;;;;;;;5.10;2.70;;;;;;;;;;6194548;23;20004;-95
2024/02/22 07:42:12;;;;;;;4.47;0.80;;;;;;;;;;6194380;23;20005;-96
2024/02/22 07:44:38;;;;;;;2.92;0.68;;;;;;;;;;6195140;23;20005;-95
2024/02/22 07:47:03;;;;;;;0.50;0.30;;;;;;;;;;6191260;23;20115;-95
2024/02/22 07:49:29;;;;;;;2.22;1.30;;;;;;;;;;6190161;23;20025;-95
2024/02/22 07:51:54;;;;;;;2.05;0.43;;;;;;;;;;6200770;23;20005;-95
2024/02/22 07:54:19;;;;;;;4.28;0.30;;;;;;;;;;6198935;23;20027;-96
2024/02/22 07:56:45;;;;;;;1.17;0.20;;;;;;;;;;6193694;23;19997;-96
2024/02/22 07:59:11;;;;;;;0.45;0.15;;;;;;;;;;6197405;23;20001;-96
2024/02/22 08:01:40;;;;;;;0.25;0.10;;;;;;;;;;6196980;23;20059;-96
2024/02/22 08:04:05;;;;;;;0.98;0.20;;;;;;;;;;6198327;23;20335;-96
2024/02/22 08:06:31;;;;;;;1.73;0.10;;;;;;;;;;6197776;23;20084;-96
2024/02/22 08:08:56;;;;;;;1.85;0.47;;;;;;;;;;6197833;23;20024;-95
2024/02/22 08:11:24;;;;;;;1.77;0.20;;;;;;;;;;6196920;23;20011;-96
2024/02/22 08:13:50;;;;;;;1.95;0.30;;;;;;;;;;6195877;23;20072;-95
2024/02/22 08:16:15;;;;;;;0.90;0.20;;;;;;;;;;6196104;23;19993;-95
2024/02/22 08:18:41;;;;;;;0.60;0.22;;;;;;;;;;6196794;23;20084;-95
2024/02/22 08:21:06;;;;;;;0.45;0.20;;;;;;;;;;6198918;23;20016;-95
2024/02/22 08:23:32;;;;;;;2.75;0.47;;;;;;;;;;6174595;23;20025;-96
2024/02/22 08:25:57;;;;;;;1.92;0.40;;;;;;;;;;6176265;23;20043;-95
2024/02/22 08:28:23;;;;;;;1.20;0.20;;;;;;;;;;6176392;23;19984;-96
2024/02/22 08:30:50;;;;;;;1.02;0.20;;;;;;;;;;6172088;23;20001;-95
2024/02/22 08:33:16;;;;;;;0.40;0.10;;;;;;;;;;6170438;23;19997;-95
2024/02/22 08:35:41;;;;;;;0.47;0.20;;;;;;;;;;6166883;23;20498;-96
2024/02/22 08:38:07;;;;;;;2.50;0.30;;;;;;;;;;6165214;23;20001;-96
2024/02/22 08:40:32;;;;;;;2.20;0.20;;;;;;;;;;6165446;23;20001;-96
2024/02/22 08:43:00;;;;;;;0.10;0.10;;;;;;;;;;6166754;23;20007;-95
2024/02/22 08:45:26;;;;;;;0.43;0.20;;;;;;;;;;6165618;23;20009;-95
2024/02/22 08:47:51;;;;;;;3.90;0.20;;;;;;;;;;6165593;23;20031;-96
2024/02/22 08:50:17;;;;;;;0.55;0.10;;;;;;;;;;6166126;23;19997;-96
2024/02/22 08:52:43;;;;;;;2.05;0.10;;;;;;;;;;6165053;23;20011;-95
2024/02/22 08:55:09;;;;;;;1.90;0.10;;;;;;;;;;6163952;23;20439;-96
2024/02/22 08:57:35;;;;;;;1.38;0.10;;;;;;;;;;6163665;23;20001;-95
2024/02/22 09:00:00;;;;;;;2.80;0.20;;;;;;;;;;6163343;23;20029;-96
2024/02/22 09:02:25;;;;;;;1.20;0.10;;;;;;;;;;6163200;23;20008;-96
2024/02/22 09:04:51;;;;;;;0.17;0.05;;;;;;;;;;6162061;23;20009;-95
2024/02/22 09:07:16;;;;;;;1.35;0.20;;;;;;;;;;6162187;23;20053;-95
2024/02/22 09:09:41;;;;;;;1.40;0.10;;;;;;;;;;6162043;23;19997;-96
2024/02/22 09:12:07;;;;;;;1.13;0.25;;;;;;;;;;6162021;23;20005;-95
2024/02/22 09:14:32;;;;;;;0.32;0.10;;;;;;;;;;6161206;23;20046;-96
2024/02/22 09:16:57;;;;;;;0.25;0.10;;;;;;;;;;6162085;23;19997;-96
2024/02/22 09:19:25;;;;;;;1.95;0.20;;;;;;;;;;6164220;23;19997;-96
2024/02/22 09:21:50;;;;;;;0.75;0.17;;;;;;;;;;6162968;23;20427;-95
2024/02/22 09:24:16;;;;;;;0.10;0.10;;;;;;;;;;6171430;23;20016;-96
2024/02/22 09:26:41;;;;;;;0.20;0.03;;;;;;;;;;6188641;23;20008;-96
2024/02/22 09:29:07;;;;;;;0.40;0.20;;;;;;;;;;6188073;23;20424;-96
2024/02/22 09:31:32;;;;;;;4.90;0.30;;;;;;;;;;6191980;23;20004;-95
2024/02/22 09:34:00;;;;;;;0.30;0.05;;;;;;;;;;6187356;23;19997;-96
2024/02/22 09:36:25;;;;;;;1.02;0.17;;;;;;;;;;6186047;23;20005;-96
2024/02/22 09:38:52;;;;;;;0.75;0.10;;;;;;;;;;6185993;23;20125;-95
2024/02/22 09:41:17;;;;;;;0.47;0.10;;;;;;;;;;6186447;23;20009;-95
2024/02/22 09:43:43;;;;;;;1.10;0.15;;;;;;;;;;6185970;23;20001;-96
2024/02/22 09:46:08;;;;;;;0.38;0.10;;;;;;;;;;6185519;23;20013;-96
2024/02/22 09:48:34;;;;;;;0.10;0.10;;;;;;;;;;6185960;23;20504;-95
2024/02/22 09:50:59;;;;;;;0.00;0.00;;;;;;;;;;6185677;23;20001;-96
2024/02/22 09:53:25;;;;;;;1.75;0.17;;;;;;;;;;6186520;23;19997;-95
2024/02/22 09:55:50;;;;;;;0.20;0.10;;;;;;;;;;6185924;23;20000;-95
2024/02/22 09:58:15;;;;;;;0.10;0.00;;;;;;;;;;6186830;23;20474;-95
2024/02/22 10:00:41;;;;;;;1.17;0.20;;;;;;;;;;6186593;23;20416;-95
2024/02/22 10:03:06;;;;;;;0.95;0.20;;;;;;;;;;6186795;23;19997;-95
2024/02/22 10:05:37;;;;;;;0.32;0.20;;;;;;;;;;6186024;23;20092;-95
2024/02/22 10:08:13;;;;;;;0.20;0.15;;;;;;;;;;6186346;23;20001;-96
2024/02/22 10:10:40;;;;;;;0.20;0.10;;;;;;;;;;6186496;23;20004;-95
2024/02/22 10:13:05;;;;;;;1.90;0.30;;;;;;;;;;6186573;23;20486;-95
2024/02/22 10:15:32;;;;;;;0.20;0.20;;;;;;;;;;6186746;23;20001;-94
2024/02/22 10:17:57;;;;;;;1.30;0.32;;;;;;;;;;6186933;23;20047;-96
2024/02/22 10:20:32;;;;;;;1.00;0.45;;;;;;;;;;6186651;23;20005;-95
2024/02/22 10:23:07;;;;;;;0.60;0.30;;;;;;;;;;6186823;23;20005;-95
2024/02/22 10:25:32;;;;;;;0.40;0.30;;;;;;;;;;6186091;23;20020;-95
2024/02/22 10:27:58;;;;;;;2.63;0.25;;;;;;;;;;6187454;23;20408;-95
2024/02/22 10:30:26;;;;;;;0.50;0.17;;;;;;;;;;6186683;23;20001;-96
2024/02/22 10:32:54;;;;;;;0.57;0.20;;;;;;;;;;6186452;23;20001;-94
2024/02/22 10:35:20;;;;;;;1.38;0.20;;;;;;;;;;6185693;23;20001;-95
2024/02/22 10:37:47;;;;;;;0.38;0.28;;;;;;;;;;6186692;23;20057;-95
2024/02/22 10:40:13;;;;;;;0.55;0.43;;;;;;;;;;6187058;23;20420;-94
2024/02/22 10:42:39;;;;;;;1.25;0.30;;;;;;;;;;6187328;23;20049;-95
2024/02/22 10:45:05;;;;;;;0.43;0.25;;;;;;;;;;6187120;23;20009;-95
2024/02/22 10:47:32;;;;;;;0.63;0.30;;;;;;;;;;6190818;23;19998;-94
2024/02/22 10:49:59;;;;;;;0.60;0.30;;;;;;;;;;6192759;23;20001;-95
2024/02/22 10:52:25;;;;;;;1.38;0.52;;;;;;;;;;6186418;23;20462;-96
2024/02/22 10:54:52;;;;;;;0.55;0.10;;;;;;;;;;6186254;23;20025;-96
2024/02/22 10:57:21;;;;;;;3.78;0.32;;;;;;;;;;6186267;23;19993;-96
2024/02/22 10:59:47;;;;;;;0.75;0.30;;;;;;;;;;6186377;23;20001;-95
2024/02/22 11:02:12;;;;;;;0.85;0.40;;;;;;;;;;6185854;23;20008;-96
2024/02/22 11:04:38;;;;;;;4.53;0.32;;;;;;;;;;6186073;23;19993;-96
2024/02/22 11:07:04;;;;;;;5.15;0.85;;;;;;;;;;6186060;23;19997;-95
2024/02/22 11:09:36;;;;;;;0.98;0.60;;;;;;;;;;6185729;23;20415;-95
2024/02/22 11:12:01;;;;;;;;;;;;;;;;;;6186621;23;20024;-95
2024/02/22 11:14:28;;;;;;;2.15;0.40;;;;;;;;;;6186016;23;19900;-95
2024/02/22 11:16:53;;;;;;;1.95;0.50;;;;;;;;;;6186088;23;20001;-96
2024/02/22 11:19:26;;;;;;;2.78;0.52;;;;;;;;;;6185804;23;20004;-95
2024/02/22 11:21:51;;;;;;;0.80;0.70;;;;;;;;;;6186215;23;19996;-94
2024/02/22 11:24:23;;;;;;;1.10;0.60;;;;;;;;;;6185835;23;20482;-95
2024/02/22 11:26:49;;;;;;;0.82;0.70;;;;;;;;;;6184866;23;20431;-94
2024/02/22 11:29:24;;;;;;;0.75;0.60;;;;;;;;;;6185114;23;20054;-95
2024/02/22 11:31:50;;;;;;;1.55;0.68;;;;;;;;;;6185560;23;20005;-95
2024/02/22 11:34:15;;;;;;;1.33;0.75;;;;;;;;;;6185568;23;20139;-94
2024/02/22 11:36:41;;;;;;;1.98;0.77;;;;;;;;;;6186121;23;20084;-96
2024/02/22 11:39:06;;;;;;;2.22;0.90;;;;;;;;;;6185303;23;20031;-95
2024/02/22 11:41:32;;;;;;;1.77;0.65;;;;;;;;;;6185255;23;20028;-96
2024/02/22 11:44:03;;;;;;;3.40;1.13;;;;;;;;;;6185899;23;20063;-94
2024/02/22 11:46:32;;;;;;;2.78;0.63;;;;;;;;;;6185480;23;20044;-96
2024/02/22 11:48:57;;;;;;;1.08;0.60;;;;;;;;;;6186451;23;20001;-94
2024/02/22 11:51:23;;;;;;;0.95;0.55;;;;;;;;;;6186092;23;20000;-95
2024/02/22 11:53:53;;;;;;;1.38;0.60;;;;;;;;;;6185344;23;20450;-95
2024/02/22 11:56:18;;;;;;;0.50;0.45;;;;;;;;;;6185156;23;20009;-94
2024/02/22 11:58:43;;;;;;;1.50;0.60;;;;;;;;;;6184630;23;20490;-94
2024/02/22 12:01:08;;;;;;;1.00;0.47;;;;;;;;;;6184841;23;20029;-95
2024/02/22 12:03:34;;;;;;;0.80;0.70;;;;;;;;;;6184939;23;19997;-95
2024/02/22 12:06:06;;;;;;;0.70;0.52;;;;;;;;;;6184355;23;20009;-95
2024/02/22 12:08:31;;;;;;;3.05;0.60;;;;;;;;;;6184256;23;20001;-95
2024/02/22 12:10:57;;;;;;;3.97;0.70;;;;;;;;;;6184201;23;20011;-95
2024/02/22 12:13:22;;;;;;;1.60;0.47;;;;;;;;;;6183858;23;20012;-95
2024/02/22 12:15:47;;;;;;;1.45;0.60;;;;;;;;;;6183996;23;20032;-95
2024/02/22 12:18:14;;;;;;;1.85;0.63;;;;;;;;;;6184067;23;20028;-95
2024/02/22 12:20:40;;;;;;;2.47;0.65;;;;;;;;;;6183661;23;20009;-95
2024/02/22 12:23:06;;;;;;;3.22;0.50;;;;;;;;;;6184303;23;20313;-95
2024/02/22 12:25:32;;;;;;;3.25;0.63;;;;;;;;;;6183584;23;20017;-95
2024/02/22 12:27:58;;;;;;;0.85;0.55;;;;;;;;;;6183881;23;20383;-95
2024/02/22 12:30:23;;;;;;;5.22;0.65;;;;;;;;;;6183799;23;20005;-95
2024/02/22 12:32:49;;;;;;;2.28;0.70;;;;;;;;;;6183807;23;19997;-94
2024/02/22 12:35:15;;;;;;;2.08;0.70;;;;;;;;;;6183255;23;20012;-94
2024/02/22 12:37:40;;;;;;;1.33;0.90;;;;;;;;;;6183659;23;20005;-94
2024/02/22 12:40:08;;;;;;;3.33;0.80;;;;;;;;;;6183455;23;19997;-95
2024/02/22 12:42:34;;;;;;;3.90;0.75;;;;;;;;;;6183599;23;20005;-94
2024/02/22 12:44:59;;;;;;;2.50;1.37;;;;;;;;;;6183031;23;20004;-94
2024/02/22 12:47:24;;;;;;;3.13;1.10;;;;;;;;;;6183658;23;20323;-94
2024/02/22 12:49:50;;;;;;;2.28;0.70;;;;;;;;;;6183462;23;19997;-94
2024/02/22 12:52:15;;;;;;;3.08;0.65;;;;;;;;;;6183420;23;20072;-95
2024/02/22 12:54:41;;;;;;;4.97;0.85;;;;;;;;;;6183353;23;20029;-95
2024/02/22 12:57:07;;;;;;;2.72;0.40;;;;;;;;;;6183766;23;19993;-94
2024/02/22 12:59:33;;;;;;;1.33;0.10;;;;;;;;;;6185285;23;20088;-94
2024/02/22 13:01:58;;;;;;;2.67;0.20;;;;;;;;;;6183725;23;20037;-94
2024/02/22 13:04:23;;;;;;;0.70;0.35;;;;;;;;;;6183694;23;20023;-94
2024/02/22 13:06:48;;;;;;;1.45;0.43;;;;;;;;;;6183217;23;20009;-94
2024/02/22 13:09:14;;;;;;;1.65;0.20;;;;;;;;;;6183552;23;20051;-93
2024/02/22 13:11:39;;;;;;;2.08;0.30;;;;;;;;;;6183239;23;20032;-93
2024/02/22 13:14:04;;;;;;;2.45;0.20;;;;;;;;;;6183288;23;20001;-95
2024/02/22 13:16:30;;;;;;;2.85;0.40;;;;;;;;;;6183227;23;20445;-93
2024/02/22 13:18:55;;;;;;;1.42;0.20;;;;;;;;;;6183365;23;20009;-93
2024/02/22 13:21:21;;;;;;;3.15;0.43;;;;;;;;;;6185144;23;20084;-94
2024/02/22 13:23:46;;;;;;;2.58;0.50;;;;;;;;;;6184474;23;20001;-95
2024/02/22 13:26:11;;;;;;;4.85;0.60;;;;;;;;;;6159728;23;20013;-93
2024/02/22 13:28:36;;;;;;;3.10;0.45;;;;;;;;;;6160332;23;20000;-93
2024/02/22 13:31:02;;;;;;;2.50;0.47;;;;;;;;;;6160719;23;20011;-93
2024/02/22 13:33:28;;;;;;;3.47;0.32;;;;;;;;;;6160590;23;20131;-95
2024/02/22 13:35:54;;;;;;;3.63;0.50;;;;;;;;;;6160355;23;20005;-94
2024/02/22 13:38:19;;;;;;;3.47;0.35;;;;;;;;;;6160587;23;20404;-95
2024/02/22 13:40:44;;;;;;;6.57;0.37;;;;;;;;;;6160495;23;20005;-96
2024/02/22 13:43:10;;;;;;;0.88;0.20;;;;;;;;;;6160006;23;20223;-92
2024/02/22 13:45:40;;;;;;;4.07;0.40;;;;;;;;;;6186155;23;20012;-94
2024/02/22 13:48:08;;;;;;;1.73;0.10;;;;;;;;;;6186380;23;19999;-95
2024/02/22 13:50:34;;;;;;;1.55;0.35;;;;;;;;;;6159899;23;20004;-94
2024/02/22 13:52:59;;;;;;;0.30;0.20;;;;;;;;;;6160130;23;20001;-93
2024/02/22 13:55:24;;;;;;;0.95;0.20;;;;;;;;;;6159502;23;20004;-95
2024/02/22 13:57:49;;;;;;;1.75;0.20;;;;;;;;;;6159813;23;19997;-94
2024/02/22 14:00:15;;;;;;;2.08;0.38;;;;;;;;;;6160358;23;19997;-95
2024/02/22 14:02:41;;;;;;;0.55;0.20;;;;;;;;;;6160147;23;20420;-92
2024/02/22 14:05:06;;;;;;;1.33;0.20;;;;;;;;;;6161443;23;20001;-95
2024/02/22 14:07:32;;;;;;;0.88;0.20;;;;;;;;;;6162307;23;19997;-92
2024/02/22 14:09:58;;;;;;;0.22;0.10;;;;;;;;;;6160212;23;20279;-94
2024/02/22 14:12:23;;;;;;;2.05;0.28;;;;;;;;;;6159933;23;20000;-94
2024/02/22 14:14:48;;;;;;;0.55;0.10;;;;;;;;;;6159832;23;20020;-95
2024/02/22 14:17:13;;;;;;;0.30;0.10;;;;;;;;;;6160228;23;20047;-94
2024/02/22 14:19:39;;;;;;;0.77;0.28;;;;;;;;;;6160126;23;20001;-93
2024/02/22 14:22:04;;;;;;;0.77;0.20;;;;;;;;;;6160165;23;20028;-94
2024/02/22 14:24:29;;;;;;;0.30;0.10;;;;;;;;;;6168763;23;20009;-92
2024/02/22 14:26:55;;;;;;;2.47;0.30;;;;;;;;;;6184008;23;20005;-94
2024/02/22 14:29:20;;;;;;;0.13;0.13;;;;;;;;;;6184664;23;20305;-94
2024/02/22 14:31:46;;;;;;;2.33;0.30;;;;;;;;;;6184275;23;20000;-94
2024/02/22 14:34:14;;;;;;;0.75;0.40;;;;;;;;;;6186298;23;20005;-94
2024/02/22 14:36:40;;;;;;;1.48;0.30;;;;;;;;;;6184470;23;20424;-94
2024/02/22 14:39:10;;;;;;;0.20;0.20;;;;;;;;;;6184947;23;20531;-94
2024/02/22 14:41:35;;;;;;;0.95;0.50;;;;;;;;;;6184491;23;20051;-94
2024/02/22 14:44:00;;;;;;;2.97;0.40;;;;;;;;;;6184504;23;20001;-94
2024/02/22 14:46:29;;;;;;;0.13;0.08;;;;;;;;;;6185503;23;20001;-93